Time;durP1;ratioP1;P1;durP2;ratioP2;P2;SDS_P1;SDS_P2;PMS_P1;PMS_P2;Temp;Humidity;BMP_temperature;BMP_pressure;BME280_temperature;BME280_humidity;BME280_pressure;Samples;Min_cycle;Max_cycle;Signal;HPM_P1;HPM_P2
2024/01/08 00:00:27;;;;;;;7.53;4.43;;;-1.10;76.50;;;;;;4927661;28;21055;-71
2024/01/08 00:02:53;;;;;;;6.43;3.77;;;-1.10;76.10;;;;;;4931239;29;20599;-70
2024/01/08 00:05:18;;;;;;;7.83;4.37;;;-1.20;75.80;;;;;;4930658;29;20196;-71
2024/01/08 00:07:44;;;;;;;6.33;3.57;;;-1.10;75.90;;;;;;4932076;29;20318;-70
2024/01/08 00:10:10;;;;;;;8.40;4.03;;;-1.00;75.70;;;;;;4926279;28;20254;-70
2024/01/08 00:12:35;;;;;;;5.72;3.67;;;-1.00;75.20;;;;;;4932353;29;20270;-72
2024/01/08 00:15:01;;;;;;;8.47;4.00;;;-1.10;74.90;;;;;;4930297;29;20716;-70
2024/01/08 00:17:26;;;;;;;6.37;4.03;;;-1.10;75.20;;;;;;4930594;28;20200;-72
2024/01/08 00:19:52;;;;;;;6.77;4.00;;;-1.20;74.90;;;;;;4929233;28;20230;-70
2024/01/08 00:22:18;;;;;;;7.43;4.23;;;-1.30;74.60;;;;;;4928813;29;20223;-69
2024/01/08 00:24:43;;;;;;;5.10;4.13;;;-1.30;74.90;;;;;;4926362;29;20194;-70
2024/01/08 00:27:09;;;;;;;6.97;4.33;;;-1.30;75.10;;;;;;4927506;29;20192;-68
2024/01/08 00:29:34;;;;;;;6.43;3.67;;;-1.30;75.10;;;;;;4923680;28;20250;-69
2024/01/08 00:32:00;;;;;;;6.00;4.20;;;-1.40;74.60;;;;;;4929046;28;20181;-68
2024/01/08 00:34:27;;;;;;;6.27;3.60;;;-1.40;74.80;;;;;;4934980;29;20216;-67
2024/01/08 00:36:53;;;;;;;8.80;4.05;;;-1.40;75.20;;;;;;4940061;28;20212;-69
2024/01/08 00:39:18;;;;;;;5.30;3.80;;;-1.30;75.20;;;;;;4940150;28;20192;-73
2024/01/08 00:41:44;;;;;;;7.23;3.80;;;-1.30;74.90;;;;;;4933305;28;20466;-70
2024/01/08 00:44:10;;;;;;;6.00;3.87;;;-1.40;75.10;;;;;;4932755;28;20254;-70
2024/01/08 00:46:35;;;;;;;9.00;4.80;;;-1.30;75.20;;;;;;4932084;29;20653;-72
2024/01/08 00:49:01;;;;;;;9.13;4.13;;;-1.30;74.80;;;;;;4934161;28;20319;-69
2024/01/08 00:51:26;;;;;;;6.47;4.37;;;-1.30;74.80;;;;;;4927711;28;20208;-70
2024/01/08 00:53:52;;;;;;;7.40;3.90;;;-1.30;74.90;;;;;;4934023;28;20189;-69
2024/01/08 00:56:18;;;;;;;6.23;3.50;;;-1.20;75.40;;;;;;4941198;28;20208;-69
2024/01/08 00:58:44;;;;;;;7.03;4.00;;;-1.20;75.20;;;;;;4932079;28;20311;-67
2024/01/08 01:01:13;;;;;;;8.27;5.00;;;-1.20;74.80;;;;;;4935258;28;20687;-70
2024/01/08 01:03:39;;;;;;;8.65;4.88;;;-1.20;74.80;;;;;;4930747;28;20185;-69
2024/01/08 01:06:04;;;;;;;8.20;4.80;;;-1.30;74.30;;;;;;4932460;28;20267;-70
2024/01/08 01:08:30;;;;;;;6.60;3.97;;;-1.30;74.50;;;;;;4932647;29;20187;-69
2024/01/08 01:10:56;;;;;;;6.03;3.83;;;-1.40;74.20;;;;;;4927213;28;20219;-70
2024/01/08 01:13:21;;;;;;;7.43;4.13;;;-1.30;74.30;;;;;;4931611;29;20184;-70
2024/01/08 01:15:47;;;;;;;7.80;4.60;;;-1.20;74.80;;;;;;4930921;29;20193;-69
2024/01/08 01:18:13;;;;;;;7.37;3.87;;;-1.20;74.50;;;;;;4931427;29;20478;-71
2024/01/08 01:20:38;;;;;;;9.80;4.50;;;-1.10;74.80;;;;;;4925010;28;20213;-69
2024/01/08 01:23:04;;;;;;;7.70;4.53;;;-1.20;74.20;;;;;;4933451;28;20189;-70
2024/01/08 01:25:29;;;;;;;8.43;4.60;;;-1.20;74.50;;;;;;4930357;28;20255;-70
2024/01/08 01:27:55;;;;;;;7.87;4.23;;;-1.20;74.00;;;;;;4942842;28;20204;-69
2024/01/08 01:30:20;;;;;;;8.83;4.57;;;-1.10;74.00;;;;;;4929551;28;20231;-69
2024/01/08 01:32:46;;;;;;;8.70;4.50;;;-1.10;74.00;;;;;;4936095;29;20657;-69
2024/01/08 01:35:12;;;;;;;7.50;4.47;;;-1.10;74.00;;;;;;4930190;29;20198;-68
2024/01/08 01:37:38;;;;;;;6.93;4.07;;;-1.20;73.70;;;;;;4933756;29;20188;-70
2024/01/08 01:40:04;;;;;;;7.70;5.15;;;-1.10;73.70;;;;;;4930429;28;20294;-71
2024/01/08 01:42:30;;;;;;;6.88;4.57;;;-1.10;73.70;;;;;;4935708;28;20193;-68
2024/01/08 01:44:55;;;;;;;7.20;4.50;;;-1.00;73.70;;;;;;4941042;28;20180;-68
2024/01/08 01:47:23;;;;;;;6.80;4.40;;;-0.90;74.00;;;;;;4948254;28;20435;-70
2024/01/08 01:49:50;;;;;;;8.45;4.75;;;-1.00;73.60;;;;;;4939249;28;20271;-68
2024/01/08 01:52:16;;;;;;;13.15;5.45;;;-1.20;73.00;;;;;;4931849;28;20246;-70
2024/01/08 01:54:42;;;;;;;8.13;4.90;;;-1.10;73.20;;;;;;4931240;29;20177;-70
2024/01/08 01:57:08;;;;;;;11.38;5.18;;;-1.20;73.60;;;;;;4932355;29;20181;-69
2024/01/08 01:59:34;;;;;;;7.03;4.37;;;-1.10;73.60;;;;;;4930714;29;20997;-71
2024/01/08 02:02:00;;;;;;;7.60;4.85;;;-1.10;73.30;;;;;;4930799;28;20570;-68
2024/01/08 02:04:29;;;;;;;7.53;4.82;;;-1.10;73.20;;;;;;4940081;28;20271;-67
2024/01/08 02:06:56;;;;;;;7.47;5.03;;;-1.10;73.30;;;;;;4930189;29;20191;-69
2024/01/08 02:09:22;;;;;;;8.27;4.95;;;-1.00;73.30;;;;;;4928585;28;20236;-69
2024/01/08 02:11:48;;;;;;;8.15;4.43;;;-1.00;73.20;;;;;;4928654;28;20204;-68
2024/01/08 02:14:14;;;;;;;9.50;4.97;;;-0.90;73.50;;;;;;4932687;29;20691;-69
2024/01/08 02:16:41;;;;;;;11.48;4.78;;;-0.90;73.60;;;;;;4922548;29;20177;-69
2024/01/08 02:19:08;;;;;;;10.82;5.05;;;-1.00;73.20;;;;;;4930461;28;20189;-68
2024/01/08 02:21:34;;;;;;;9.13;4.57;;;-0.80;73.70;;;;;;4927285;29;20201;-69
2024/01/08 02:24:00;;;;;;;10.00;4.73;;;-1.00;73.00;;;;;;4931214;29;20256;-69
2024/01/08 02:26:26;;;;;;;6.87;4.80;;;-1.00;73.00;;;;;;4931131;28;20428;-68
2024/01/08 02:28:52;;;;;;;10.75;4.70;;;-1.00;73.50;;;;;;4930860;28;20539;-71
2024/01/08 02:31:20;;;;;;;7.00;4.60;;;-1.00;73.00;;;;;;4928191;28;20657;-68
2024/01/08 02:33:45;;;;;;;6.82;4.78;;;-0.90;73.20;;;;;;4931502;29;20189;-69
2024/01/08 02:36:11;;;;;;;8.53;4.90;;;-1.00;73.00;;;;;;4930594;29;20632;-69
2024/01/08 02:38:36;;;;;;;8.50;5.30;;;-0.90;73.50;;;;;;4929643;29;20181;-69
2024/01/08 02:41:02;;;;;;;7.57;4.83;;;-0.90;73.20;;;;;;4927845;29;20212;-69
2024/01/08 02:43:28;;;;;;;10.07;5.73;;;-1.00;72.90;;;;;;4934181;28;20177;-70
2024/01/08 02:45:53;;;;;;;10.20;5.50;;;-1.00;73.00;;;;;;4934364;28;20234;-69
2024/01/08 02:48:19;;;;;;;8.60;5.40;;;-1.00;73.00;;;;;;4931030;28;20208;-70
2024/01/08 02:50:45;;;;;;;9.27;5.10;;;-1.00;73.20;;;;;;4924534;28;20254;-69
2024/01/08 02:53:10;;;;;;;8.80;4.97;;;-1.00;73.30;;;;;;4929875;29;20185;-70
2024/01/08 02:55:36;;;;;;;7.10;4.87;;;-1.00;72.90;;;;;;4930835;28;20323;-70
2024/01/08 02:58:04;;;;;;;10.17;5.60;;;-1.00;73.20;;;;;;4931889;29;20264;-70
2024/01/08 03:00:29;;;;;;;10.85;5.45;;;-0.90;73.20;;;;;;4931876;28;20700;-70
2024/01/08 03:02:55;;;;;;;8.47;5.53;;;-0.90;73.00;;;;;;4943575;28;20189;-68
2024/01/08 03:05:20;;;;;;;9.77;4.87;;;-0.80;73.20;;;;;;4938768;28;20195;-68
2024/01/08 03:07:46;;;;;;;8.00;5.30;;;-0.90;73.00;;;;;;4938549;29;20180;-69
2024/01/08 03:10:12;;;;;;;10.60;5.47;;;-0.90;73.00;;;;;;4936059;28;20221;-70
2024/01/08 03:12:37;;;;;;;8.27;5.30;;;-0.80;72.90;;;;;;4928175;28;20216;-70
2024/01/08 03:15:03;;;;;;;10.73;5.40;;;-0.90;72.70;;;;;;4932454;29;20195;-69
2024/01/08 03:17:29;;;;;;;7.05;4.95;;;-0.90;73.20;;;;;;4951150;28;20185;-70
2024/01/08 03:19:55;;;;;;;7.90;5.30;;;-0.90;73.30;;;;;;4922644;29;20209;-68
2024/01/08 03:22:20;;;;;;;9.60;5.63;;;-0.80;73.00;;;;;;4929130;29;20292;-69
2024/01/08 03:24:46;;;;;;;6.30;4.53;;;-0.80;72.90;;;;;;4931388;28;20192;-69
2024/01/08 03:27:12;;;;;;;9.57;5.40;;;-1.00;72.10;;;;;;4930189;28;20192;-70
2024/01/08 03:29:38;;;;;;;7.85;5.50;;;-0.90;72.40;;;;;;4927967;28;20588;-69
2024/01/08 03:32:04;;;;;;;11.70;5.20;;;-1.00;72.40;;;;;;4925728;28;20192;-69
2024/01/08 03:34:29;;;;;;;8.93;5.23;;;-1.00;72.30;;;;;;4930911;28;20657;-70
2024/01/08 03:36:55;;;;;;;8.20;4.90;;;-1.00;72.40;;;;;;4926546;28;20433;-69
2024/01/08 03:39:21;;;;;;;8.33;5.20;;;-0.80;72.40;;;;;;4930128;28;20177;-69
2024/01/08 03:41:46;;;;;;;7.27;5.20;;;-0.80;72.70;;;;;;4929294;29;20213;-69
2024/01/08 03:44:14;;;;;;;9.30;5.83;;;-0.90;72.40;;;;;;4937557;28;20200;-70
2024/01/08 03:46:39;;;;;;;10.15;4.82;;;-0.80;72.70;;;;;;4932858;28;20192;-67
2024/01/08 03:49:06;;;;;;;7.70;4.83;;;-0.80;72.90;;;;;;4936063;28;20293;-69
2024/01/08 03:51:32;;;;;;;8.48;4.75;;;-0.90;72.70;;;;;;4933656;29;20271;-68
2024/01/08 03:53:58;;;;;;;8.60;5.80;;;-0.80;72.40;;;;;;4935140;29;20196;-70
2024/01/08 03:56:24;;;;;;;7.43;4.80;;;-0.80;72.70;;;;;;4935915;29;20435;-70
2024/01/08 03:58:49;;;;;;;11.13;6.27;;;-0.70;72.60;;;;;;4950648;28;20181;-69
2024/01/08 04:01:15;;;;;;;8.63;5.03;;;-0.90;72.40;;;;;;4931514;28;20201;-70
2024/01/08 04:03:41;;;;;;;8.63;5.23;;;-1.00;72.60;;;;;;4934962;29;20181;-71
2024/01/08 04:06:08;;;;;;;7.97;5.15;;;-1.00;72.90;;;;;;4930843;29;20278;-68
2024/01/08 04:08:34;;;;;;;12.00;5.90;;;-0.80;73.00;;;;;;4931389;29;20964;-71
2024/01/08 04:11:00;;;;;;;7.60;5.10;;;-0.80;72.90;;;;;;4938544;28;20251;-71
2024/01/08 04:13:26;;;;;;;7.37;4.53;;;-0.70;72.90;;;;;;4938051;28;20433;-70
2024/01/08 04:15:51;;;;;;;9.23;4.73;;;-0.80;72.70;;;;;;4939482;29;20668;-70
2024/01/08 04:18:17;;;;;;;8.07;4.90;;;-0.70;72.60;;;;;;4939301;29;20200;-70
2024/01/08 04:20:43;;;;;;;8.60;5.30;;;-0.60;72.70;;;;;;4930444;28;20204;-71
2024/01/08 04:23:08;;;;;;;7.53;5.57;;;-0.70;72.60;;;;;;4935926;29;21286;-70
2024/01/08 04:25:34;;;;;;;8.90;4.83;;;-0.70;72.30;;;;;;4936707;29;20979;-69
2024/01/08 04:28:00;;;;;;;8.00;4.63;;;-0.70;72.30;;;;;;4934892;28;20212;-71
2024/01/08 04:30:26;;;;;;;8.10;4.53;;;-0.70;72.00;;;;;;4931740;28;20298;-70
2024/01/08 04:32:52;;;;;;;10.50;5.03;;;-0.70;72.10;;;;;;4936259;28;20246;-72
2024/01/08 04:35:18;;;;;;;8.35;5.03;;;-0.60;72.10;;;;;;4937076;29;20434;-69
2024/01/08 04:37:43;;;;;;;9.60;5.10;;;-0.70;71.80;;;;;;4934135;29;20263;-70
2024/01/08 04:40:10;;;;;;;9.50;4.80;;;-0.70;72.00;;;;;;4934446;28;20212;-69
2024/01/08 04:42:36;;;;;;;9.05;3.95;;;-0.90;71.80;;;;;;4940552;29;20243;-70
2024/01/08 04:45:01;;;;;;;9.50;4.87;;;-0.90;72.00;;;;;;4938094;29;20226;-70
2024/01/08 04:47:27;;;;;;;8.77;4.47;;;-1.00;71.80;;;;;;4946443;28;20990;-70
2024/01/08 04:49:52;;;;;;;8.13;5.23;;;-1.00;72.30;;;;;;4933989;28;20220;-69
2024/01/08 04:52:18;;;;;;;9.53;4.73;;;-0.90;72.30;;;;;;4935535;28;20185;-68
2024/01/08 04:54:44;;;;;;;8.20;5.70;;;-0.90;72.30;;;;;;4936450;29;20184;-69
2024/01/08 04:57:10;;;;;;;7.60;4.73;;;-1.00;72.10;;;;;;4934393;28;20264;-70
2024/01/08 04:59:42;;;;;;;7.20;4.63;;;-1.10;72.10;;;;;;4935235;28;20661;-68
2024/01/08 05:02:11;;;;;;;12.35;5.63;;;-1.20;72.10;;;;;;4934465;28;20199;-70
2024/01/08 05:04:37;;;;;;;7.40;4.93;;;-1.20;72.30;;;;;;4935780;29;20184;-69
2024/01/08 05:07:03;;;;;;;7.23;4.97;;;-1.10;72.70;;;;;;4933315;29;20196;-69
2024/01/08 05:09:29;;;;;;;8.32;5.15;;;-1.10;72.40;;;;;;4942269;28;20483;-68
2024/01/08 05:11:55;;;;;;;8.32;4.72;;;-1.10;72.40;;;;;;4931021;28;20218;-70
2024/01/08 05:14:21;;;;;;;7.45;5.05;;;-1.20;72.30;;;;;;4935893;29;20192;-71
2024/01/08 05:16:46;;;;;;;8.73;5.50;;;-1.10;72.70;;;;;;4933511;29;20180;-71
2024/01/08 05:19:12;;;;;;;10.93;6.10;;;-1.10;72.60;;;;;;4933438;29;20670;-69
2024/01/08 05:21:38;;;;;;;8.77;5.20;;;-1.20;72.40;;;;;;4929949;28;20200;-69
2024/01/08 05:24:04;;;;;;;12.03;5.87;;;-1.20;72.60;;;;;;4932346;29;20189;-69
2024/01/08 05:26:29;;;;;;;10.65;5.20;;;-1.20;72.60;;;;;;4931942;28;20188;-70
2024/01/08 05:28:56;;;;;;;10.47;5.80;;;-1.20;72.70;;;;;;4935527;28;20195;-69
2024/01/08 05:31:22;;;;;;;12.00;5.72;;;-1.30;72.90;;;;;;4926227;28;20266;-71
2024/01/08 05:33:49;;;;;;;7.72;5.43;;;-1.30;73.20;;;;;;4932823;29;20188;-70
2024/01/08 05:36:15;;;;;;;10.35;5.50;;;-1.30;73.20;;;;;;4931719;29;20200;-70
2024/01/08 05:38:41;;;;;;;9.15;6.10;;;-1.40;73.30;;;;;;4929616;29;20185;-73
2024/01/08 05:41:06;;;;;;;7.70;5.30;;;-1.40;73.60;;;;;;4930598;28;20247;-70
2024/01/08 05:43:37;;;;;;;8.87;6.27;;;-1.40;73.60;;;;;;4931747;28;20618;-70
2024/01/08 05:46:07;;;;;;;9.45;5.78;;;-1.40;73.90;;;;;;4931546;28;20193;-70
2024/01/08 05:48:37;;;;;;;7.10;4.90;;;-1.30;73.70;;;;;;4931349;28;20192;-70
2024/01/08 05:51:11;;;;;;;8.13;5.07;;;-1.30;73.70;;;;;;4926659;28;20281;-69
2024/01/08 05:53:37;;;;;;;9.23;5.75;;;-1.40;73.30;;;;;;4935586;29;20183;-69
2024/01/08 05:56:03;;;;;;;9.00;5.43;;;-1.30;73.30;;;;;;4935792;29;20657;-69
2024/01/08 05:58:28;;;;;;;12.15;6.47;;;-1.40;73.30;;;;;;4932273;29;20193;-69
2024/01/08 06:00:54;;;;;;;11.60;5.40;;;-1.30;73.60;;;;;;4935165;28;20284;-70
2024/01/08 06:03:22;;;;;;;14.30;6.17;;;-1.20;73.70;;;;;;4939058;29;20189;-71
2024/01/08 06:05:47;;;;;;;9.70;5.65;;;-1.20;72.90;;;;;;4938420;29;20204;-71
2024/01/08 06:08:13;;;;;;;13.03;5.30;;;-1.20;72.70;;;;;;4939871;28;20197;-71
2024/01/08 06:10:40;;;;;;;9.53;5.47;;;-1.10;72.60;;;;;;4930813;28;20227;-68
2024/01/08 06:13:07;;;;;;;7.40;5.45;;;-1.20;71.80;;;;;;4934697;29;20188;-70
2024/01/08 06:15:33;;;;;;;8.23;5.32;;;-1.30;72.00;;;;;;4937276;28;20284;-71
2024/01/08 06:17:59;;;;;;;10.70;6.25;;;-1.30;71.70;;;;;;4932343;29;20193;-70
2024/01/08 06:20:24;;;;;;;7.67;4.63;;;-1.40;71.80;;;;;;4934390;28;20223;-71
2024/01/08 06:22:50;;;;;;;10.30;5.47;;;-1.40;71.40;;;;;;4933952;28;20185;-71
2024/01/08 06:25:16;;;;;;;9.10;5.40;;;-1.30;71.70;;;;;;4934207;29;20181;-70
2024/01/08 06:27:41;;;;;;;9.80;6.00;;;-1.30;71.30;;;;;;4928200;29;20687;-69
2024/01/08 06:30:08;;;;;;;9.97;5.53;;;-1.20;71.40;;;;;;4926062;28;20235;-69
2024/01/08 06:32:33;;;;;;;9.30;4.68;;;-1.30;71.60;;;;;;4934700;28;20212;-71
2024/01/08 06:34:59;;;;;;;12.23;4.80;;;-1.30;70.50;;;;;;4931621;28;20180;-69
2024/01/08 06:37:26;;;;;;;9.37;5.10;;;-1.10;71.70;;;;;;4930784;29;20246;-71
2024/01/08 06:39:52;;;;;;;9.02;5.28;;;-1.20;70.80;;;;;;4927604;28;20282;-68
2024/01/08 06:42:17;;;;;;;9.30;5.17;;;-1.30;70.70;;;;;;4932102;28;20212;-71
2024/01/08 06:44:43;;;;;;;9.53;4.57;;;-1.10;71.00;;;;;;4930953;28;20181;-70
2024/01/08 06:47:09;;;;;;;6.80;4.13;;;-1.10;70.80;;;;;;4937181;28;20212;-70
2024/01/08 06:49:35;;;;;;;6.90;4.83;;;-1.20;70.10;;;;;;4931842;29;20481;-70
2024/01/08 06:52:00;;;;;;;6.55;4.60;;;-1.20;69.80;;;;;;4935808;28;20200;-69
2024/01/08 06:54:26;;;;;;;7.57;4.37;;;-1.20;70.40;;;;;;4934422;28;20189;-68
2024/01/08 06:56:52;;;;;;;8.90;5.13;;;-1.00;70.20;;;;;;4933808;29;20242;-70
2024/01/08 06:59:18;;;;;;;7.97;5.10;;;-1.00;69.90;;;;;;4937170;28;20191;-71
2024/01/08 07:01:44;;;;;;;9.10;5.00;;;-1.00;69.70;;;;;;4924001;28;20215;-71
2024/01/08 07:04:10;;;;;;;7.70;5.07;;;-1.00;69.40;;;;;;4935761;29;20558;-70
2024/01/08 07:06:35;;;;;;;8.50;5.20;;;-1.00;69.70;;;;;;4929506;28;20432;-68
2024/01/08 07:09:01;;;;;;;9.80;5.47;;;-0.90;69.90;;;;;;4945180;28;20281;-69
2024/01/08 07:11:26;;;;;;;10.93;5.00;;;-0.90;69.70;;;;;;4939976;28;20255;-68
2024/01/08 07:13:52;;;;;;;8.60;4.97;;;-0.90;69.20;;;;;;4932520;28;20223;-70
2024/01/08 07:16:18;;;;;;;9.37;4.63;;;-1.10;69.40;;;;;;4933064;28;20184;-69
2024/01/08 07:18:46;;;;;;;9.70;5.40;;;-1.00;69.50;;;;;;4936825;28;20200;-69
2024/01/08 07:21:16;;;;;;;8.55;5.40;;;-1.10;69.70;;;;;;4929923;28;20484;-68
2024/01/08 07:23:44;;;;;;;9.30;4.75;;;-1.30;69.50;;;;;;4930884;28;20185;-71
2024/01/08 07:26:10;;;;;;;7.40;4.90;;;-1.30;69.70;;;;;;4935407;28;20189;-68
2024/01/08 07:28:36;;;;;;;11.67;5.40;;;-1.20;69.90;;;;;;4935002;28;20205;-68
2024/01/08 07:31:03;;;;;;;11.33;4.47;;;-1.20;69.80;;;;;;4926253;28;20650;-67
2024/01/08 07:33:29;;;;;;;8.27;4.82;;;-1.10;69.90;;;;;;4932476;28;20898;-70
2024/01/08 07:35:55;;;;;;;8.93;5.33;;;-1.20;69.90;;;;;;4930860;29;20209;-70
2024/01/08 07:38:21;;;;;;;8.87;5.60;;;-1.30;69.80;;;;;;4935261;28;20180;-70
2024/01/08 07:40:47;;;;;;;8.27;4.97;;;-1.30;69.80;;;;;;4929721;28;20223;-70
2024/01/08 07:43:13;;;;;;;9.10;5.20;;;-1.30;70.10;;;;;;4934689;28;20200;-69
2024/01/08 07:45:39;;;;;;;28.40;5.30;;;-1.30;70.10;;;;;;4928491;29;20451;-70
2024/01/08 07:48:05;;;;;;;11.97;6.03;;;-1.30;70.20;;;;;;4932773;28;20208;-69
2024/01/08 07:50:31;;;;;;;9.33;5.13;;;-1.30;69.90;;;;;;4928642;28;20220;-68
2024/01/08 07:52:56;;;;;;;9.27;5.20;;;-1.30;70.10;;;;;;4932214;29;20432;-70
2024/01/08 07:55:22;;;;;;;9.83;5.10;;;-1.30;70.50;;;;;;4929375;29;20425;-67
2024/01/08 07:57:48;;;;;;;9.40;5.10;;;-1.40;69.90;;;;;;4936246;29;20191;-69
2024/01/08 08:00:14;;;;;;;10.50;4.93;;;-1.40;70.20;;;;;;4928945;28;20601;-71
2024/01/08 08:02:39;;;;;;;10.75;5.35;;;-1.40;70.40;;;;;;4931152;28;20180;-68
2024/01/08 08:05:05;;;;;;;9.30;5.60;;;-1.50;70.20;;;;;;4934627;29;20267;-69
2024/01/08 08:07:32;;;;;;;9.40;4.73;;;-1.40;70.50;;;;;;4931374;28;20192;-69
2024/01/08 08:09:58;;;;;;;8.63;5.03;;;-1.40;70.50;;;;;;4925049;28;20232;-70
2024/01/08 08:12:24;;;;;;;8.03;5.13;;;-1.40;70.20;;;;;;4928284;29;20611;-69
2024/01/08 08:14:49;;;;;;;10.97;5.90;;;-1.20;70.20;;;;;;4928166;29;20425;-70
2024/01/08 08:17:16;;;;;;;9.70;5.80;;;-1.20;70.20;;;;;;4930860;29;20189;-67
2024/01/08 08:19:42;;;;;;;11.63;5.65;;;-1.10;70.20;;;;;;4925303;28;20743;-70
2024/01/08 08:22:11;;;;;;;9.43;4.57;;;-1.20;70.10;;;;;;4923570;28;20192;-69
2024/01/08 08:24:40;;;;;;;8.35;5.07;;;-1.10;70.70;;;;;;4937173;28;20185;-68
2024/01/08 08:27:09;;;;;;;11.60;5.45;;;-1.10;70.10;;;;;;4934662;29;20189;-71
2024/01/08 08:29:37;;;;;;;8.50;5.20;;;-1.00;70.20;;;;;;4929724;29;20239;-69
2024/01/08 08:32:03;;;;;;;10.43;5.50;;;-1.10;69.90;;;;;;4926964;28;20584;-70
2024/01/08 08:34:29;;;;;;;10.93;5.22;;;-1.00;70.40;;;;;;4930234;28;20188;-70
2024/01/08 08:36:55;;;;;;;8.73;4.77;;;-0.90;70.10;;;;;;4924692;28;20257;-71
2024/01/08 08:39:21;;;;;;;9.90;5.37;;;-0.80;69.90;;;;;;4929142;29;20439;-69
2024/01/08 08:41:47;;;;;;;9.43;4.87;;;-0.90;69.70;;;;;;4926429;28;20208;-71
2024/01/08 08:44:12;;;;;;;9.60;5.57;;;-0.90;69.80;;;;;;4929790;28;20466;-68
2024/01/08 08:46:39;;;;;;;10.70;5.20;;;-0.80;70.10;;;;;;4929491;29;20189;-67
2024/01/08 08:49:06;;;;;;;9.63;5.93;;;-0.90;69.70;;;;;;4928241;28;20212;-68
2024/01/08 08:51:34;;;;;;;8.25;5.00;;;-0.80;69.80;;;;;;4927152;28;20972;-70
2024/01/08 08:54:04;;;;;;;9.00;4.90;;;-0.90;69.70;;;;;;4929222;29;20893;-69
2024/01/08 08:56:33;;;;;;;8.60;4.63;;;-1.00;69.70;;;;;;4925147;29;20417;-70
2024/01/08 08:58:59;;;;;;;7.15;4.95;;;-1.00;69.80;;;;;;4924204;29;20554;-69
2024/01/08 09:01:26;;;;;;;8.70;4.97;;;-1.10;69.90;;;;;;4925580;28;20219;-70
2024/01/08 09:03:54;;;;;;;9.27;4.95;;;-0.90;70.10;;;;;;4927600;28;20188;-70
2024/01/08 09:06:23;;;;;;;8.00;5.03;;;-1.00;69.80;;;;;;4928956;28;20181;-70
2024/01/08 09:08:49;;;;;;;9.18;4.85;;;-1.00;69.80;;;;;;4926361;28;20246;-68
2024/01/08 09:11:15;;;;;;;7.40;4.35;;;-0.90;69.70;;;;;;4926652;28;20200;-69
2024/01/08 09:13:42;;;;;;;6.47;4.70;;;-0.90;69.70;;;;;;4931400;28;20703;-69
2024/01/08 09:16:10;;;;;;;10.35;5.05;;;-0.80;69.80;;;;;;4930653;29;20193;-69
2024/01/08 09:18:36;;;;;;;9.80;5.07;;;-0.80;70.20;;;;;;4930736;28;20641;-68
2024/01/08 09:21:02;;;;;;;7.60;4.80;;;-0.90;69.20;;;;;;4930458;28;20311;-69
2024/01/08 09:23:27;;;;;;;9.50;4.97;;;-1.00;69.70;;;;;;4931694;28;20188;-69
2024/01/08 09:25:53;;;;;;;8.27;4.07;;;-1.10;69.70;;;;;;4937153;28;20542;-68
2024/01/08 09:28:19;;;;;;;9.73;5.30;;;-1.00;69.80;;;;;;4933354;28;20251;-68
2024/01/08 09:30:44;;;;;;;10.60;4.93;;;-1.00;69.80;;;;;;4927147;28;20294;-71
2024/01/08 09:33:10;;;;;;;11.27;5.67;;;-1.10;69.90;;;;;;4933099;29;20184;-68
2024/01/08 09:35:36;;;;;;;9.50;5.17;;;-1.00;70.10;;;;;;4926606;28;20264;-68
2024/01/08 09:38:02;;;;;;;9.63;4.97;;;-0.90;70.50;;;;;;4931678;29;20568;-69
2024/01/08 09:40:28;;;;;;;7.15;4.65;;;-0.80;69.90;;;;;;4931053;28;20468;-69
2024/01/08 09:42:55;;;;;;;9.43;5.03;;;-0.80;69.80;;;;;;4937536;29;20188;-70
2024/01/08 09:45:28;;;;;;;7.47;4.70;;;-0.80;69.80;;;;;;4934395;28;20220;-71
2024/01/08 09:47:54;;;;;;;11.02;6.50;;;-1.00;69.90;;;;;;4937036;29;20204;-70
2024/01/08 09:50:21;;;;;;;15.65;6.57;;;-1.10;69.80;;;;;;4931125;28;20217;-68
2024/01/08 09:52:49;;;;;;;12.18;7.00;;;-1.10;70.20;;;;;;4930641;28;20185;-68
2024/01/08 09:55:15;;;;;;;11.40;5.60;;;-0.90;70.40;;;;;;4931065;28;20247;-70
2024/01/08 09:57:42;;;;;;;8.52;5.55;;;-0.80;70.20;;;;;;4932169;28;20691;-68
2024/01/08 10:00:09;;;;;;;9.25;5.22;;;-0.90;70.20;;;;;;4931082;28;20224;-70
2024/01/08 10:02:35;;;;;;;11.68;5.75;;;-0.70;70.20;;;;;;4936169;28;20247;-70
2024/01/08 10:05:02;;;;;;;8.90;5.53;;;-0.70;69.90;;;;;;4932838;28;20186;-70
2024/01/08 10:07:34;;;;;;;11.07;4.95;;;-0.80;69.90;;;;;;4943006;28;20201;-69
2024/01/08 10:10:00;;;;;;;6.50;4.40;;;-0.70;69.50;;;;;;4933486;28;20307;-70
2024/01/08 10:12:26;;;;;;;7.07;4.43;;;-0.70;69.50;;;;;;4933439;28;20605;-71
2024/01/08 10:14:53;;;;;;;6.85;4.60;;;-0.60;69.20;;;;;;4930961;29;20429;-69
2024/01/08 10:17:22;;;;;;;10.02;4.88;;;-0.70;69.10;;;;;;4931214;28;20286;-70
2024/01/08 10:19:48;;;;;;;7.32;4.45;;;-0.70;69.20;;;;;;4931582;28;20223;-68
2024/01/08 10:22:15;;;;;;;7.30;4.80;;;-0.70;69.40;;;;;;4929841;29;20199;-70
2024/01/08 10:24:43;;;;;;;11.52;4.20;;;-0.70;69.40;;;;;;4928763;28;20558;-68
2024/01/08 10:27:10;;;;;;;9.10;4.63;;;-0.70;69.50;;;;;;4930778;28;20267;-70
2024/01/08 10:29:37;;;;;;;7.22;4.35;;;-0.60;69.20;;;;;;4931736;29;20252;-69
2024/01/08 10:32:04;;;;;;;11.30;4.65;;;-0.60;69.40;;;;;;4930142;28;20624;-69
2024/01/08 10:34:30;;;;;;;6.00;4.40;;;-0.50;69.20;;;;;;4936978;29;20209;-69
2024/01/08 10:36:57;;;;;;;9.60;4.93;;;-0.50;68.90;;;;;;4935197;28;20956;-70
2024/01/08 10:39:25;;;;;;;7.75;4.50;;;-0.60;68.90;;;;;;4934347;28;20437;-69
2024/01/08 10:41:50;;;;;;;10.48;5.28;;;-0.50;69.10;;;;;;4931323;28;20639;-70
2024/01/08 10:44:16;;;;;;;10.20;4.97;;;-0.40;69.20;;;;;;4932350;28;20208;-69
2024/01/08 10:47:22;;;;;;;8.47;5.40;;;-0.50;69.40;;;;;;4934579;28;20196;-67
2024/01/08 10:49:56;;;;;;;9.77;5.03;;;-0.80;69.70;;;;;;4927040;28;20363;-68
2024/01/08 10:52:27;;;;;;;8.57;4.85;;;-0.70;69.50;;;;;;4935312;29;20185;-69
2024/01/08 10:54:58;;;;;;;9.77;5.47;;;-0.80;69.80;;;;;;4933500;29;20191;-69
2024/01/08 10:57:43;;;;;;;11.43;4.88;;;-1.00;69.80;;;;;;4934162;28;20275;-70
2024/01/08 11:00:10;;;;;;;9.77;5.70;;;-1.20;70.10;;;;;;4930388;28;20211;-69
2024/01/08 11:02:40;;;;;;;8.02;5.30;;;-1.20;70.50;;;;;;4932251;29;20276;-70
2024/01/08 11:05:08;;;;;;;9.50;5.00;;;-1.00;70.70;;;;;;4925433;28;20185;-70
2024/01/08 11:07:40;;;;;;;10.05;5.18;;;-0.80;70.70;;;;;;4930628;28;20279;-68
2024/01/08 11:10:09;;;;;;;8.65;4.70;;;-0.60;70.50;;;;;;4925018;28;20248;-71
2024/01/08 11:12:41;;;;;;;9.25;5.50;;;-0.60;70.10;;;;;;4929913;28;20267;-69
2024/01/08 11:15:07;;;;;;;10.75;5.45;;;-0.70;70.10;;;;;;4926380;28;20201;-70
2024/01/08 11:17:34;;;;;;;9.10;5.20;;;-0.70;70.10;;;;;;4933950;28;20262;-70
2024/01/08 11:19:59;;;;;;;7.43;4.93;;;-0.60;70.50;;;;;;4928334;28;20219;-70
2024/01/08 11:22:25;;;;;;;13.13;4.80;;;-0.70;70.10;;;;;;4930213;29;20573;-70
2024/01/08 11:24:57;;;;;;;8.63;4.97;;;-0.60;70.20;;;;;;4931197;28;20268;-69
2024/01/08 11:27:24;;;;;;;9.90;4.97;;;-0.60;70.70;;;;;;4928088;28;20224;-70
2024/01/08 11:30:01;;;;;;;11.73;6.00;;;-0.70;69.50;;;;;;4928369;28;20746;-71
2024/01/08 11:32:51;;;;;;;17.42;6.25;;;-0.70;69.80;;;;;;4930672;28;20196;-70
2024/01/08 11:35:19;;;;;;;9.27;5.15;;;-0.90;70.10;;;;;;4930339;29;20188;-70
2024/01/08 11:38:01;;;;;;;10.65;4.28;;;-0.80;70.20;;;;;;4932296;29;20185;-71
2024/01/08 11:40:27;;;;;;;10.55;4.55;;;-0.80;70.70;;;;;;4927037;28;20361;-71
2024/01/08 11:42:53;;;;;;;8.93;4.93;;;-0.60;70.10;;;;;;4929750;29;20744;-70
2024/01/08 11:45:20;;;;;;;8.10;4.60;;;-0.50;69.90;;;;;;4934958;28;20566;-71
2024/01/08 11:47:46;;;;;;;10.63;4.82;;;-0.40;70.10;;;;;;4932918;28;20191;-71
2024/01/08 11:50:12;;;;;;;10.68;5.95;;;-0.40;69.70;;;;;;4926694;28;20220;-71
2024/01/08 11:52:39;;;;;;;10.30;4.90;;;-0.40;69.80;;;;;;4927782;29;20177;-71
2024/01/08 11:55:09;;;;;;;7.43;4.55;;;-0.40;69.80;;;;;;4930756;29;20428;-70
2024/01/08 11:57:35;;;;;;;7.40;4.53;;;-0.20;69.70;;;;;;4928800;29;20199;-70
2024/01/08 12:00:22;;;;;;;9.20;4.13;;;-0.40;69.10;;;;;;4929315;28;20213;-69
2024/01/08 12:02:48;;;;;;;9.20;4.45;;;-0.40;69.20;;;;;;4922355;29;20279;-70
2024/01/08 12:05:14;;;;;;;7.77;4.93;;;-0.40;69.50;;;;;;4933772;28;20665;-71
2024/01/08 12:07:39;;;;;;;9.80;5.67;;;-0.70;69.40;;;;;;4938484;28;20200;-70
2024/01/08 12:10:12;;;;;;;8.30;5.17;;;-0.50;70.10;;;;;;4923767;28;21079;-70
2024/01/08 12:12:39;;;;;;;8.65;5.10;;;-0.30;69.80;;;;;;4930576;29;20224;-71
2024/01/08 12:15:05;;;;;;;13.63;5.63;;;-0.40;69.20;;;;;;4931264;29;20184;-71
2024/01/08 12:17:31;;;;;;;9.73;4.97;;;-0.20;69.80;;;;;;4930984;28;20195;-71
2024/01/08 12:19:58;;;;;;;11.43;4.82;;;-0.10;69.40;;;;;;4928434;28;20510;-72
2024/01/08 12:22:26;;;;;;;12.30;5.47;;;-0.10;68.90;;;;;;4931012;29;20196;-69
2024/01/08 12:24:53;;;;;;;10.00;5.30;;;0.00;69.20;;;;;;4930584;28;20574;-71
2024/01/08 12:27:20;;;;;;;12.20;5.63;;;-0.10;68.80;;;;;;4931058;28;20204;-70
2024/01/08 12:29:49;;;;;;;9.65;5.20;;;-0.30;68.50;;;;;;4931062;28;20227;-71
2024/01/08 12:32:16;;;;;;;9.55;4.80;;;-0.20;69.10;;;;;;4928543;29;20719;-71
2024/01/08 12:34:43;;;;;;;8.20;5.00;;;0.00;68.80;;;;;;4928729;28;20212;-71
2024/01/08 12:37:09;;;;;;;8.95;4.57;;;0.10;69.10;;;;;;4931517;28;20193;-71
2024/01/08 12:39:35;;;;;;;7.40;4.30;;;0.20;68.60;;;;;;4935234;29;20197;-71
2024/01/08 12:42:15;;;;;;;8.50;5.65;;;0.20;67.70;;;;;;4930292;28;20196;-70